createdAt,value
2023-05-10T00:00:29.007Z,93.88
2023-05-10T00:02:55.843Z,94.19
2023-05-10T00:05:22.455Z,93.81
2023-05-10T00:07:49.095Z,93.87
2023-05-10T00:10:15.902Z,94.14
2023-05-10T00:12:50.551Z,93.81
2023-05-10T00:15:17.052Z,94.35
2023-05-10T00:17:43.572Z,94.00
2023-05-10T00:20:10.927Z,94.02
2023-05-10T00:22:37.385Z,94.00
2023-05-10T00:25:04.195Z,94.36
2023-05-10T00:27:30.835Z,94.22
2023-05-10T00:29:59.938Z,94.14
2023-05-10T00:32:26.486Z,93.54
2023-05-10T00:34:52.982Z,94.11
2023-05-10T00:37:19.494Z,94.11
2023-05-10T00:39:46.087Z,94.27
2023-05-10T00:42:12.607Z,94.16
2023-05-10T00:44:41.827Z,94.16
2023-05-10T00:47:09.184Z,94.29
2023-05-10T00:49:36.634Z,94.31
2023-05-10T00:52:04.052Z,94.48
2023-05-10T00:54:31.243Z,94.51
2023-05-10T00:57:00.026Z,94.39
2023-05-10T00:59:26.859Z,94.41
2023-05-10T01:01:54.267Z,94.14
2023-05-10T01:04:26.477Z,94.30
2023-05-10T01:06:54.446Z,94.31
2023-05-10T01:09:22.350Z,94.49
2023-05-10T01:11:50.016Z,94.46
2023-05-10T01:14:20.850Z,94.33
2023-05-10T01:16:49.354Z,94.44
2023-05-10T01:19:27.593Z,94.33
2023-05-10T01:22:06.402Z,94.63
2023-05-10T01:24:39.013Z,94.49
2023-05-10T01:27:38.687Z,94.36
2023-05-10T01:30:28.798Z,94.53
2023-05-10T01:32:58.275Z,94.33
2023-05-10T01:35:33.579Z,94.49
2023-05-10T01:38:11.469Z,94.33
2023-05-10T01:40:51.232Z,94.28
2023-05-10T01:43:29.486Z,94.60
2023-05-10T01:46:11.739Z,94.55
2023-05-10T01:48:47.280Z,94.47
2023-05-10T01:51:17.867Z,94.55
2023-05-10T01:53:49.703Z,94.44
2023-05-10T01:56:17.135Z,94.47
2023-05-10T01:58:47.836Z,94.56
2023-05-10T02:01:17.709Z,94.61
2023-05-10T02:03:44.980Z,94.57
2023-05-10T02:06:13.833Z,94.32
2023-05-10T02:08:42.161Z,94.71
2023-05-10T02:11:10.042Z,94.89
2023-05-10T02:13:40.679Z,94.37
2023-05-10T02:16:08.395Z,94.48
2023-05-10T02:18:37.634Z,94.44
2023-05-10T02:21:05.086Z,94.59
2023-05-10T02:23:33.999Z,94.41
2023-05-10T02:26:02.884Z,94.61
2023-05-10T02:28:30.658Z,94.42
2023-05-10T02:30:57.665Z,94.33
2023-05-10T02:33:25.365Z,94.38
2023-05-10T02:35:52.335Z,94.13
2023-05-10T02:38:21.822Z,94.45
2023-05-10T02:40:49.206Z,94.14
2023-05-10T02:43:18.156Z,93.99
2023-05-10T02:45:49.152Z,94.36
2023-05-10T02:48:17.126Z,93.97
2023-05-10T02:50:49.643Z,93.90
2023-05-10T02:53:21.938Z,94.07
2023-05-10T02:55:52.778Z,94.21
2023-05-10T02:58:20.374Z,94.15
2023-05-10T03:00:47.581Z,93.83
2023-05-10T03:03:14.404Z,93.98
2023-05-10T03:05:40.866Z,94.01
2023-05-10T03:08:07.694Z,93.77
2023-05-10T03:10:39.050Z,93.80
2023-05-10T03:13:33.717Z,93.62
2023-05-10T03:16:10.348Z,93.62
2023-05-10T03:18:47.129Z,94.03
2023-05-10T03:21:17.446Z,93.67
2023-05-10T03:24:01.372Z,94.00
2023-05-10T03:26:32.286Z,94.12
2023-05-10T03:29:00.111Z,93.99
2023-05-10T03:31:27.104Z,93.97
2023-05-10T03:33:53.964Z,93.92
2023-05-10T03:36:22.056Z,94.16
2023-05-10T03:38:48.613Z,94.04
2023-05-10T03:41:15.166Z,94.02
2023-05-10T03:43:42.169Z,93.95
2023-05-10T03:46:08.782Z,94.18
2023-05-10T03:48:35.937Z,93.86
2023-05-10T03:51:02.458Z,93.98
2023-05-10T03:53:28.989Z,93.86
2023-05-10T03:55:55.643Z,94.08
2023-05-10T03:58:22.957Z,94.02
2023-05-10T04:00:49.617Z,93.92
2023-05-10T04:03:16.525Z,94.02
2023-05-10T04:05:45.696Z,94.11
2023-05-10T04:08:12.421Z,94.03
2023-05-10T04:10:39.222Z,93.88
2023-05-10T04:13:05.822Z,93.91
2023-05-10T04:15:32.340Z,94.20
2023-05-10T04:17:58.923Z,94.04
2023-05-10T04:20:25.551Z,94.24
2023-05-10T04:22:52.186Z,94.44
2023-05-10T04:25:18.711Z,94.38
2023-05-10T04:27:45.213Z,94.37
2023-05-10T04:30:12.222Z,94.37
2023-05-10T04:32:38.788Z,94.19
2023-05-10T04:35:05.743Z,94.37
2023-05-10T04:37:32.259Z,94.03
2023-05-10T04:40:00.899Z,93.97
2023-05-10T04:42:27.364Z,94.03
2023-05-10T04:44:57.333Z,94.19
2023-05-10T04:47:23.897Z,93.82
2023-05-10T04:49:50.378Z,93.91
2023-05-10T04:52:18.414Z,94.14
2023-05-10T04:54:44.942Z,94.02
2023-05-10T04:57:11.736Z,93.90
2023-05-10T04:59:38.626Z,94.16
2023-05-10T05:02:06.052Z,94.09
2023-05-10T05:04:32.698Z,94.14
2023-05-10T05:06:59.185Z,94.01
2023-05-10T05:09:25.698Z,93.99
2023-05-10T05:11:52.761Z,93.73
2023-05-10T05:14:19.255Z,93.83
2023-05-10T05:16:45.782Z,93.95
2023-05-10T05:19:12.276Z,93.73
2023-05-10T05:21:39.113Z,94.00
2023-05-10T05:24:06.155Z,93.71
2023-05-10T05:26:32.683Z,93.91
2023-05-10T05:28:59.183Z,93.74
2023-05-10T05:31:26.050Z,93.68
2023-05-10T05:33:52.728Z,93.96
2023-05-10T05:36:19.638Z,93.92
2023-05-10T05:38:46.178Z,93.51
2023-05-10T05:41:13.113Z,93.70
2023-05-10T05:43:39.579Z,93.63
2023-05-10T05:46:06.556Z,93.75
2023-05-10T05:48:36.448Z,93.51
2023-05-10T05:51:03.432Z,93.39
2023-05-10T05:53:31.216Z,93.44
2023-05-10T05:55:59.404Z,93.58
2023-05-10T05:58:26.876Z,93.64
2023-05-10T06:00:53.629Z,93.28
2023-05-10T06:03:20.766Z,93.54
2023-05-10T06:05:47.889Z,93.03
2023-05-10T06:08:14.314Z,92.62
2023-05-10T06:10:40.771Z,92.41
2023-05-10T06:13:07.569Z,92.51
2023-05-10T06:15:34.452Z,92.54
2023-05-10T06:18:01.230Z,92.43
2023-05-10T06:20:27.862Z,92.18
2023-05-10T06:22:55.705Z,92.22
2023-05-10T06:25:22.396Z,91.92
2023-05-10T06:27:52.588Z,92.18
2023-05-10T06:30:20.396Z,91.95
2023-05-10T06:32:47.257Z,91.76
2023-05-10T06:35:14.162Z,91.84
2023-05-10T06:37:40.831Z,91.73
2023-05-10T06:40:08.221Z,91.51
2023-05-10T06:42:34.682Z,91.32
2023-05-10T06:45:04.762Z,90.72
2023-05-10T06:47:31.242Z,90.85
2023-05-10T06:50:00.704Z,90.47
2023-05-10T06:52:27.161Z,90.49
2023-05-10T06:54:53.692Z,90.58
2023-05-10T06:57:31.122Z,90.35
2023-05-10T07:00:02.558Z,90.13
2023-05-10T07:02:29.500Z,89.97
2023-05-10T07:04:56.127Z,89.88
2023-05-10T07:07:22.651Z,89.78
2023-05-10T07:09:50.608Z,89.47
2023-05-10T07:12:17.123Z,89.50
2023-05-10T07:14:43.641Z,89.24
2023-05-10T07:17:10.862Z,89.02
2023-05-10T07:19:37.431Z,88.51
2023-05-10T07:22:04.118Z,88.39
2023-05-10T07:24:32.233Z,87.59
2023-05-10T07:26:58.962Z,87.26
2023-05-10T07:29:25.489Z,87.13
2023-05-10T07:31:52.357Z,86.49
2023-05-10T07:34:19.003Z,87.28
2023-05-10T07:36:45.453Z,87.22
2023-05-10T07:39:16.241Z,87.09
2023-05-10T07:41:49.129Z,86.83
2023-05-10T07:44:15.804Z,87.49
2023-05-10T07:46:42.269Z,86.57
2023-05-10T07:49:08.756Z,86.47
2023-05-10T07:51:35.363Z,86.09
2023-05-10T07:54:03.611Z,85.73
2023-05-10T07:56:32.800Z,85.31
2023-05-10T07:59:00.768Z,84.89
2023-05-10T08:01:30.739Z,83.98
2023-05-10T08:03:57.264Z,84.17
2023-05-10T08:06:23.737Z,84.47
2023-05-10T08:08:51.492Z,84.96
2023-05-10T08:11:18.568Z,84.60
2023-05-10T08:13:49.785Z,84.83
2023-05-10T08:16:17.672Z,84.11
2023-05-10T08:18:46.421Z,84.01
2023-05-10T08:21:14.461Z,83.90
2023-05-10T08:23:41.608Z,84.10
2023-05-10T08:26:08.079Z,84.21
2023-05-10T08:28:34.624Z,85.16
2023-05-10T08:31:01.297Z,84.55
2023-05-10T08:33:28.046Z,84.93
2023-05-10T08:35:54.478Z,84.56
2023-05-10T08:38:21.290Z,83.91
2023-05-10T08:40:50.346Z,84.30
2023-05-10T08:43:16.915Z,84.10
2023-05-10T08:45:46.359Z,83.41
2023-05-10T08:48:12.881Z,83.23
2023-05-10T08:50:41.068Z,82.81
2023-05-10T08:53:11.996Z,82.23
2023-05-10T08:55:39.837Z,82.39
2023-05-10T08:58:06.871Z,82.34
2023-05-10T09:00:34.647Z,81.54
2023-05-10T09:03:02.589Z,82.59
2023-05-10T09:05:29.540Z,82.81
2023-05-10T09:07:56.326Z,82.00
2023-05-10T09:10:24.082Z,81.91
2023-05-10T09:12:51.048Z,81.13
2023-05-10T09:15:20.323Z,81.12
2023-05-10T09:17:48.260Z,79.59
2023-05-10T09:20:15.043Z,78.90
2023-05-10T09:22:41.785Z,77.30
2023-05-10T09:25:15.824Z,77.01
2023-05-10T09:27:46.576Z,76.28
2023-05-10T09:30:29.456Z,74.90
2023-05-10T09:32:57.293Z,73.46
2023-05-10T09:35:29.347Z,73.07
2023-05-10T09:37:58.555Z,72.06
2023-05-10T09:40:26.708Z,70.74
2023-05-10T09:43:00.571Z,70.52
2023-05-10T09:45:29.151Z,69.08
2023-05-10T09:47:56.581Z,68.79
2023-05-10T09:50:24.073Z,68.09
2023-05-10T09:53:01.660Z,68.91
2023-05-10T09:55:50.240Z,68.92
2023-05-10T09:58:16.917Z,69.33
2023-05-10T10:00:45.988Z,68.74
2023-05-10T10:03:21.345Z,68.97
2023-05-10T10:05:51.250Z,69.12
2023-05-10T10:08:18.655Z,69.10
2023-05-10T10:10:47.017Z,69.39
2023-05-10T10:13:14.244Z,68.93
2023-05-10T10:15:40.941Z,69.92
2023-05-10T10:18:08.971Z,69.83
2023-05-10T10:20:38.574Z,70.37
2023-05-10T10:23:05.201Z,69.93
2023-05-10T10:25:32.108Z,70.03
2023-05-10T10:28:33.491Z,70.04
2023-05-10T10:31:16.830Z,69.88
2023-05-10T10:34:02.102Z,69.21
2023-05-10T10:36:28.789Z,69.08
2023-05-10T10:39:00.473Z,68.67
2023-05-10T10:41:32.211Z,69.68
2023-05-10T10:44:26.349Z,69.56
2023-05-10T10:47:30.839Z,70.18
2023-05-10T10:50:06.192Z,69.63
2023-05-10T10:52:39.985Z,69.45
2023-05-10T10:55:23.374Z,69.47
2023-05-10T10:58:01.376Z,69.51
2023-05-10T11:00:33.160Z,69.45
2023-05-10T11:03:19.783Z,67.85
2023-05-10T11:05:50.534Z,67.90
2023-05-10T11:08:35.759Z,68.69
2023-05-10T11:11:10.611Z,68.20
2023-05-10T11:13:44.612Z,68.02
2023-05-10T11:16:21.345Z,68.25
2023-05-10T11:19:09.286Z,69.19
2023-05-10T11:21:47.088Z,69.64
2023-05-10T11:24:19.993Z,69.67
2023-05-10T11:26:46.867Z,69.28
2023-05-10T11:29:14.699Z,69.27
2023-05-10T11:31:46.136Z,68.89
2023-05-10T11:34:13.632Z,68.04
2023-05-10T11:36:40.096Z,66.99
2023-05-10T11:39:07.707Z,65.84
2023-05-10T11:41:34.296Z,64.19
2023-05-10T11:44:00.977Z,63.12
2023-05-10T11:46:30.778Z,62.85
2023-05-10T11:49:02.905Z,60.59
2023-05-10T11:51:29.575Z,60.31
2023-05-10T11:53:57.705Z,60.18
2023-05-10T11:56:27.547Z,61.04
2023-05-10T11:59:00.912Z,63.00
2023-05-10T12:01:31.709Z,63.54
2023-05-10T12:04:01.751Z,63.28
2023-05-10T12:06:30.449Z,64.13
2023-05-10T12:08:57.049Z,63.70
2023-05-10T12:11:27.263Z,63.56
2023-05-10T12:13:56.049Z,62.57
2023-05-10T12:16:23.608Z,62.37
2023-05-10T12:18:57.195Z,61.94
2023-05-10T12:21:23.930Z,62.16
2023-05-10T12:23:55.525Z,60.83
2023-05-10T12:26:27.288Z,59.88
2023-05-10T12:29:19.969Z,60.18
2023-05-10T12:31:58.004Z,60.80
2023-05-10T12:34:37.161Z,60.68
2023-05-10T12:37:04.245Z,61.49
2023-05-10T12:39:45.258Z,60.23
2023-05-10T12:42:12.185Z,60.11
2023-05-10T12:44:44.049Z,58.91
2023-05-10T12:47:10.430Z,60.18
2023-05-10T12:49:36.949Z,58.49
2023-05-10T12:52:03.682Z,57.70
2023-05-10T12:54:30.086Z,57.98
2023-05-10T12:56:56.611Z,57.98
2023-05-10T12:59:23.803Z,57.67
2023-05-10T13:01:50.561Z,58.43
2023-05-10T13:04:17.107Z,59.55
2023-05-10T13:06:43.689Z,59.85
2023-05-10T13:09:10.117Z,60.83
2023-05-10T13:11:36.914Z,61.59
2023-05-10T13:14:04.367Z,65.29
2023-05-10T13:16:31.081Z,68.40
2023-05-10T13:18:57.630Z,70.20
2023-05-10T13:21:25.587Z,71.36
2023-05-10T13:23:52.231Z,73.65
2023-05-10T13:26:18.656Z,75.32
2023-05-10T13:28:45.079Z,77.86
2023-05-10T13:31:14.366Z,81.52
2023-05-10T13:33:43.241Z,83.54
2023-05-10T13:36:09.806Z,85.88
2023-05-10T13:38:36.391Z,86.78
2023-05-10T13:41:05.552Z,87.46
2023-05-10T13:43:32.042Z,88.19
2023-05-10T13:45:58.699Z,88.77
2023-05-10T13:48:25.177Z,89.27
2023-05-10T13:50:51.667Z,89.63
2023-05-10T13:53:18.084Z,90.04
2023-05-10T13:55:45.095Z,90.52
2023-05-10T13:58:11.897Z,90.76
2023-05-10T14:00:38.320Z,91.10
2023-05-10T14:03:06.251Z,91.02
2023-05-10T14:05:33.105Z,91.22
2023-05-10T14:07:59.507Z,91.41
2023-05-10T14:10:25.928Z,91.59
2023-05-10T14:12:52.698Z,91.45
2023-05-10T14:15:19.441Z,91.79
2023-05-10T14:17:46.072Z,92.22
2023-05-10T14:20:12.518Z,91.77
2023-05-10T14:22:38.910Z,92.04
2023-05-10T14:25:05.706Z,92.18
2023-05-10T14:27:33.628Z,91.81
2023-05-10T14:30:01.205Z,92.07
2023-05-10T14:32:29.017Z,92.24
2023-05-10T14:34:55.848Z,92.18
2023-05-10T14:37:23.470Z,92.16
2023-05-10T14:39:49.934Z,92.30
2023-05-10T14:42:16.357Z,92.65
2023-05-10T14:44:42.803Z,92.56
2023-05-10T14:47:10.591Z,92.32
2023-05-10T14:49:38.327Z,92.13
2023-05-10T14:52:04.741Z,92.51
2023-05-10T14:54:31.192Z,92.75
2023-05-10T14:56:57.647Z,92.63
2023-05-10T14:59:24.082Z,92.62
2023-05-10T15:01:50.895Z,92.47
2023-05-10T15:04:17.934Z,92.37
2023-05-10T15:06:45.238Z,92.81
2023-05-10T15:09:11.745Z,92.77
2023-05-10T15:11:38.258Z,92.50
2023-05-10T15:14:04.648Z,92.34
2023-05-10T15:16:35.027Z,92.21
2023-05-10T15:19:02.720Z,92.09
2023-05-10T15:21:29.216Z,91.54
2023-05-10T15:23:55.710Z,91.65
2023-05-10T15:26:23.016Z,91.51
2023-05-10T15:28:49.739Z,91.20
2023-05-10T15:31:16.238Z,90.73
2023-05-10T15:33:42.684Z,90.51
2023-05-10T15:36:09.118Z,90.26
2023-05-10T15:38:35.653Z,90.08
2023-05-10T15:41:02.531Z,89.90
2023-05-10T15:43:29.673Z,89.30
2023-05-10T15:45:56.565Z,89.05
2023-05-10T15:48:23.641Z,88.55
2023-05-10T15:50:50.387Z,87.60
2023-05-10T15:53:16.946Z,86.88
2023-05-10T15:55:44.241Z,85.84
2023-05-10T15:58:11.544Z,84.48
2023-05-10T16:00:39.333Z,85.66
2023-05-10T16:03:08.649Z,85.88
2023-05-10T16:05:35.395Z,85.52
2023-05-10T16:08:05.364Z,83.80
2023-05-10T16:10:33.257Z,84.07
2023-05-10T16:13:00.512Z,82.98
2023-05-10T16:15:27.747Z,83.22
2023-05-10T16:17:54.588Z,84.43
2023-05-10T16:20:21.229Z,85.08
2023-05-10T16:22:47.684Z,83.91
2023-05-10T16:25:14.497Z,84.46
2023-05-10T16:27:41.077Z,82.88
2023-05-10T16:30:08.897Z,85.33
2023-05-10T16:32:35.532Z,86.05
2023-05-10T16:35:02.135Z,86.48
2023-05-10T16:37:31.631Z,85.22
2023-05-10T16:39:58.162Z,85.98
2023-05-10T16:42:26.146Z,86.60
2023-05-10T16:44:53.967Z,85.66
2023-05-10T16:47:20.436Z,85.69
2023-05-10T16:49:46.957Z,85.13
2023-05-10T16:52:14.227Z,84.47
2023-05-10T16:54:40.744Z,84.68
2023-05-10T16:57:08.560Z,85.44
2023-05-10T16:59:35.130Z,84.04
2023-05-10T17:02:01.900Z,83.31
2023-05-10T17:04:28.645Z,83.43
2023-05-10T17:06:55.080Z,82.83
2023-05-10T17:09:21.562Z,82.69
2023-05-10T17:11:47.994Z,81.51
2023-05-10T17:14:14.606Z,81.37
2023-05-10T17:16:41.910Z,81.17
2023-05-10T17:19:09.256Z,81.37
2023-05-10T17:21:36.290Z,80.76
2023-05-10T17:24:02.757Z,80.10
2023-05-10T17:26:30.107Z,80.16
2023-05-10T17:28:57.433Z,80.46
2023-05-10T17:31:23.999Z,80.74
2023-05-10T17:33:50.390Z,79.85
2023-05-10T17:36:16.847Z,79.73
2023-05-10T17:38:43.520Z,80.13
2023-05-10T17:41:10.085Z,79.15
2023-05-10T17:43:36.571Z,79.17
2023-05-10T17:46:03.697Z,79.52
2023-05-10T17:48:33.118Z,80.18
2023-05-10T17:50:59.871Z,80.61
2023-05-10T17:53:26.317Z,80.57
2023-05-10T17:55:52.813Z,80.39
2023-05-10T17:58:19.284Z,80.65
2023-05-10T18:00:46.395Z,80.19
2023-05-10T18:03:12.961Z,81.26
2023-05-10T18:05:39.658Z,79.96
2023-05-10T18:08:07.444Z,80.58
2023-05-10T18:10:34.521Z,80.35
2023-05-10T18:13:02.486Z,80.00
2023-05-10T18:15:28.973Z,80.24
2023-05-10T18:17:56.990Z,81.44
2023-05-10T18:20:23.523Z,81.51
2023-05-10T18:22:50.310Z,81.74
2023-05-10T18:25:17.284Z,82.17
2023-05-10T18:27:44.064Z,82.73
2023-05-10T18:30:12.746Z,82.39
2023-05-10T18:32:39.759Z,83.05
2023-05-10T18:35:07.900Z,82.99
2023-05-10T18:37:35.053Z,83.27
2023-05-10T18:40:02.008Z,83.38
2023-05-10T18:42:32.732Z,83.74
2023-05-10T18:44:59.188Z,84.03
2023-05-10T18:47:26.666Z,84.02
2023-05-10T18:49:53.346Z,84.21
2023-05-10T18:52:19.870Z,84.09
2023-05-10T18:54:46.617Z,84.09
2023-05-10T18:57:13.911Z,84.01
2023-05-10T18:59:40.487Z,84.56
2023-05-10T19:02:07.426Z,84.37
2023-05-10T19:04:34.237Z,84.42
2023-05-10T19:07:02.041Z,85.06
2023-05-10T19:09:28.879Z,85.04
2023-05-10T19:11:55.518Z,85.21
2023-05-10T19:14:25.553Z,85.37
2023-05-10T19:16:53.685Z,85.75
2023-05-10T19:19:20.704Z,86.03
2023-05-10T19:21:48.202Z,86.41
2023-05-10T19:24:14.766Z,86.43
2023-05-10T19:26:41.561Z,86.29
2023-05-10T19:29:11.079Z,86.53
2023-05-10T19:31:40.119Z,86.51
2023-05-10T19:34:06.556Z,86.82
2023-05-10T19:36:34.420Z,87.13
2023-05-10T19:39:03.007Z,87.07
2023-05-10T19:41:29.482Z,87.29
2023-05-10T19:43:56.162Z,87.86
2023-05-10T19:46:22.857Z,87.68
2023-05-10T19:48:49.386Z,87.78
2023-05-10T19:51:15.889Z,88.40
2023-05-10T19:53:45.186Z,88.91
2023-05-10T19:56:13.343Z,88.80
2023-05-10T19:58:40.860Z,88.83
2023-05-10T20:01:07.715Z,88.85
2023-05-10T20:03:35.613Z,88.98
2023-05-10T20:06:03.002Z,89.33
2023-05-10T20:08:30.041Z,89.43
2023-05-10T20:10:59.250Z,89.43
2023-05-10T20:13:25.785Z,89.36
2023-05-10T20:15:55.809Z,89.42
2023-05-10T20:18:23.059Z,89.28
2023-05-10T20:20:57.591Z,89.66
2023-05-10T20:23:24.158Z,89.65
2023-05-10T20:25:51.372Z,89.76
2023-05-10T20:28:23.456Z,89.91
2023-05-10T20:30:54.896Z,89.91
2023-05-10T20:33:22.257Z,89.80
2023-05-10T20:35:50.345Z,90.29
2023-05-10T20:38:18.158Z,89.99
2023-05-10T20:40:44.914Z,90.25
2023-05-10T20:43:11.427Z,90.28
2023-05-10T20:45:38.090Z,90.26
2023-05-10T20:48:04.891Z,90.01
2023-05-10T20:50:31.509Z,89.93
2023-05-10T20:52:57.952Z,90.24
2023-05-10T20:55:24.533Z,89.83
2023-05-10T20:57:51.491Z,89.98
2023-05-10T21:00:18.455Z,89.87
2023-05-10T21:02:46.106Z,89.92
2023-05-10T21:05:12.767Z,90.02
2023-05-10T21:07:39.465Z,90.01
2023-05-10T21:10:10.470Z,89.85
2023-05-10T21:12:37.534Z,89.90
2023-05-10T21:15:04.634Z,89.86
2023-05-10T21:17:31.139Z,89.85
2023-05-10T21:19:57.665Z,90.09
2023-05-10T21:22:24.108Z,89.81
2023-05-10T21:24:50.545Z,89.83
2023-05-10T21:27:16.975Z,89.81
2023-05-10T21:29:43.690Z,89.71
2023-05-10T21:32:10.495Z,89.60
2023-05-10T21:34:36.978Z,89.86
2023-05-10T21:37:03.701Z,89.71
2023-05-10T21:39:30.442Z,89.92
2023-05-10T21:41:56.962Z,90.07
2023-05-10T21:44:23.411Z,90.28
2023-05-10T21:46:50.189Z,90.45
2023-05-10T21:49:17.845Z,90.41
2023-05-10T21:51:44.339Z,90.45
2023-05-10T21:54:11.025Z,90.51
2023-05-10T21:56:37.717Z,90.49
2023-05-10T21:59:04.565Z,90.44
2023-05-10T22:01:32.097Z,90.57
2023-05-10T22:03:58.565Z,90.67
2023-05-10T22:06:25.020Z,90.61
2023-05-10T22:08:52.972Z,90.97
2023-05-10T22:11:19.663Z,90.83
2023-05-10T22:13:48.646Z,91.10
2023-05-10T22:16:17.060Z,91.12
2023-05-10T22:18:44.198Z,90.97
2023-05-10T22:21:10.850Z,91.02
2023-05-10T22:23:37.364Z,90.75
2023-05-10T22:26:04.584Z,91.02
2023-05-10T22:28:31.128Z,91.06
2023-05-10T22:30:57.602Z,91.05
2023-05-10T22:33:24.152Z,91.03
2023-05-10T22:35:50.851Z,90.75
2023-05-10T22:38:19.042Z,91.14
2023-05-10T22:40:45.505Z,91.06
2023-05-10T22:43:12.095Z,91.02
2023-05-10T22:45:38.654Z,91.27
2023-05-10T22:48:05.500Z,91.08
2023-05-10T22:50:32.020Z,90.99
2023-05-10T22:52:58.478Z,91.16
2023-05-10T22:55:25.145Z,90.97
2023-05-10T22:57:52.637Z,91.00
2023-05-10T23:00:19.875Z,90.99
2023-05-10T23:02:46.689Z,91.17
2023-05-10T23:05:13.421Z,91.27
2023-05-10T23:07:39.887Z,91.00
2023-05-10T23:10:06.974Z,91.04
2023-05-10T23:12:33.965Z,91.02
2023-05-10T23:15:02.758Z,90.95
2023-05-10T23:17:29.293Z,91.08
2023-05-10T23:19:56.000Z,91.03
2023-05-10T23:22:22.535Z,91.04
2023-05-10T23:24:49.223Z,91.35
2023-05-10T23:27:15.884Z,91.19
2023-05-10T23:29:42.467Z,91.06
2023-05-10T23:32:09.219Z,90.95
2023-05-10T23:34:36.066Z,90.89
2023-05-10T23:37:02.618Z,90.76
2023-05-10T23:39:29.225Z,91.06
2023-05-10T23:41:55.932Z,91.09
2023-05-10T23:44:22.839Z,90.72
2023-05-10T23:46:49.429Z,90.69
2023-05-10T23:49:17.273Z,90.97
2023-05-10T23:51:43.849Z,90.92
2023-05-10T23:54:10.420Z,90.77
2023-05-10T23:56:37.550Z,90.66
2023-05-10T23:59:05.900Z,90.98
